Phillips Army Air Field
KAPG : now visible

Aeroporto :











RITROVATECI SU...

 
LOGIN :

Iscrizione | Disclaimer

   EN    FR    IT 

 









Sommario :    VFR   VFR Marginale   IFR   IFR Intensivo   IFR Molto Intensivo
Visibilità : 
Base nubi : 
>= 8 km
>= 3000ft
5 / 8 km
1000 / 3000 ft
1500m / 5 km
500 / 1000 ft
800 / 1500m
200 / 500 ft
< 800m
< 200 ft
Simboli :   Temporali  Nebbia  Neve Forte  Precipitazioni Forti  Vento > 20 kt






- Altitudine del aeroporto : 57 ft


KAPG - Phillips Army Air Field

ULTIMO METAR :
  • 051658Z AUTO 32009G18KT 10SM SCT033 SCT049 BKN070 09/02 A2978 RMK AO2 SLP088 T00860016 $

METARs OBSOLETI :
  • 051558Z AUTO 33013G19KT 10SM BKN032 BKN060 OVC085 09/03 A2979 RMK AO2 SLP091 T00870030 $
  • 051458Z AUTO 34008G21KT 10SM FEW030 SCT060 08/03 A2978 RMK AO2 SLP088 60000 T00830031 52021 $

TAF N/A
FIR KZDC / America del Nord



MetMap, La meteo Aeronautica in un colpo d'occhio ! - Copyright ORBIFLY Dicembre 2007 - Disclaimer

ORBIFLY MET'MAP TEAM :

Programmazione e sviluppo : Alexandra Zaïnal
Concezione : Baudouin d'Aumeries
Aiuto per la programmazione : Marc-Olivier Méhu
Supporto tecnico e logistico : Manuel Goepfert
Aiuto per la traduzione : Arnaldo La Scala

Contatto : metmap@orbifly.com




FONTI E CREDITI :

   NOAA       Earth
Advisory